Аэропорт: Кемерово. Кемерово

ICAO: UNEE

METAR:
2021-07-28 13:00:00
UNEE 281300Z 26002MPS 9999 SCT030 18/10 Q1009 R23/CLRD60 NOSIG RMK QFE734
METAR:
2021-07-28 11:00:00
TAF UNEE 281100Z 2812/2912 34003MPS 9999 BKN040CB BECMG 2822/2901 18003G08MPS